Terminal Aerodrome Forecast
Issued by NWS

Home | Current Version | Previous Version | Text Only | Print | Product List | Glossary On
Versions: 1 2 3 4 5 6 7 8 9 10 11 12 13 14 15 16 17 18 19 20 21 22 23
000
FTUS46 KPDT 290500 AAA
TAFALW
TAF AMD
KALW 290524Z 2905/3006 19004KT 1/4SM FG VV002
      TEMPO 2906/2910 1SM BR OVC004
     FM291900 VRB04KT 3SM BR SCT003 OVC008
     FM292200 VRB04KT 5SM BR SCT012 OVC025
     FM300100 19004KT 2SM BR BKN004 OVC012=

USA.gov is the U.S. government's official web portal to all federal, state and local government web resources and services.